Time;durP1;ratioP1;P1;durP2;ratioP2;P2;SDS_P1;SDS_P2;PMS_P1;PMS_P2;Temp;Humidity;BMP_temperature;BMP_pressure;BME280_temperature;BME280_humidity;BME280_pressure;Samples;Min_cycle;Max_cycle;Signal;HPM_P1;HPM_P2
2021/11/03 00:00:56;;;;;;;88.50;26.50;;;5.90;99.80;;;;;;4968941;28;20221;-79
2021/11/03 00:03:22;;;;;;;82.22;25.52;;;5.90;99.70;;;;;;4963504;28;20035;-79
2021/11/03 00:05:48;;;;;;;85.15;25.30;;;5.90;99.70;;;;;;4968712;28;20043;-79
2021/11/03 00:08:16;;;;;;;89.65;24.80;;;6.00;99.60;;;;;;4953486;28;20510;-79
2021/11/03 00:10:43;;;;;;;75.57;24.08;;;6.00;99.50;;;;;;4958782;28;20022;-79
2021/11/03 00:13:10;;;;;;;69.53;23.58;;;5.90;99.40;;;;;;4944820;28;20027;-79
2021/11/03 00:15:36;;;;;;;70.07;23.92;;;5.90;99.40;;;;;;4966538;28;20094;-79
2021/11/03 00:18:02;;;;;;;73.22;24.90;;;5.80;99.20;;;;;;4966008;28;20031;-79
2021/11/03 00:20:28;;;;;;;62.75;21.85;;;5.80;99.40;;;;;;4958565;28;20065;-79
2021/11/03 00:22:53;;;;;;;66.03;21.45;;;5.70;99.30;;;;;;4968942;28;20055;-79
2021/11/03 00:25:19;;;;;;;62.33;20.15;;;5.80;99.40;;;;;;4962677;28;20066;-79
2021/11/03 00:27:47;;;;;;;57.47;19.42;;;5.80;99.40;;;;;;4962788;28;20049;-79
2021/11/03 00:30:12;;;;;;;48.10;18.70;;;5.80;99.40;;;;;;4963453;28;20054;-79
2021/11/03 00:32:38;;;;;;;56.97;19.30;;;5.80;99.20;;;;;;4966308;28;20062;-80
2021/11/03 00:35:04;;;;;;;50.88;19.35;;;5.90;99.20;;;;;;4954983;28;20022;-79
2021/11/03 00:37:30;;;;;;;46.88;18.33;;;5.80;99.10;;;;;;4951823;28;20089;-79
2021/11/03 00:39:55;;;;;;;46.45;18.02;;;5.80;98.90;;;;;;4952501;28;20031;-79
2021/11/03 00:42:21;;;;;;;49.88;17.90;;;5.70;98.80;;;;;;4954865;28;20050;-78
2021/11/03 00:44:46;;;;;;;51.55;18.08;;;5.70;98.70;;;;;;4951088;28;20532;-79
2021/11/03 00:47:12;;;;;;;48.42;17.13;;;5.60;98.70;;;;;;4959018;28;20042;-79
2021/11/03 00:49:37;;;;;;;44.85;16.85;;;5.50;98.60;;;;;;4959246;28;20031;-78
2021/11/03 00:52:03;;;;;;;42.30;15.75;;;5.40;98.60;;;;;;4955815;28;20030;-79
2021/11/03 00:54:28;;;;;;;45.05;17.80;;;5.40;98.70;;;;;;4968810;28;20050;-78
2021/11/03 00:56:54;;;;;;;40.42;15.80;;;5.30;98.60;;;;;;4962403;28;20026;-79
2021/11/03 00:59:19;;;;;;;42.50;17.10;;;5.20;98.60;;;;;;4955123;28;20138;-78
2021/11/03 01:01:46;;;;;;;49.33;17.48;;;5.20;98.60;;;;;;4962511;28;20400;-79
2021/11/03 01:04:12;;;;;;;49.75;18.40;;;5.10;98.60;;;;;;4945833;28;20109;-78
2021/11/03 01:06:38;;;;;;;50.50;17.70;;;5.00;98.70;;;;;;4940888;28;20191;-78
2021/11/03 01:09:04;;;;;;;56.67;18.75;;;5.00;98.70;;;;;;4959268;28;20218;-78
2021/11/03 01:11:29;;;;;;;50.17;18.58;;;5.00;98.80;;;;;;4940708;28;20027;-78
2021/11/03 01:13:55;;;;;;;55.15;20.55;;;5.00;98.80;;;;;;4960724;28;20174;-79
2021/11/03 01:16:20;;;;;;;56.05;19.80;;;5.00;98.90;;;;;;4947442;28;20641;-79
2021/11/03 01:18:46;;;;;;;53.90;18.10;;;4.90;98.90;;;;;;4949276;28;20027;-79
2021/11/03 01:21:11;;;;;;;52.97;19.27;;;5.00;98.90;;;;;;4957542;28;20392;-77
2021/11/03 01:23:37;;;;;;;56.40;20.00;;;4.90;98.80;;;;;;4937269;28;20093;-78
2021/11/03 01:26:03;;;;;;;65.07;20.17;;;4.90;98.90;;;;;;4965756;28;20066;-79
2021/11/03 01:28:28;;;;;;;59.13;19.40;;;4.90;99.00;;;;;;4953666;28;20027;-78
2021/11/03 01:30:55;;;;;;;66.88;19.90;;;4.90;99.00;;;;;;4958265;28;20039;-78
2021/11/03 01:33:21;;;;;;;58.30;19.65;;;4.90;99.00;;;;;;4964031;28;20105;-78
2021/11/03 01:35:47;;;;;;;54.67;19.00;;;4.90;99.10;;;;;;4944888;28;20035;-78
2021/11/03 01:38:13;;;;;;;56.97;20.73;;;5.00;99.20;;;;;;4965150;28;20108;-78
2021/11/03 01:40:42;;;;;;;64.53;19.85;;;5.10;99.30;;;;;;4932962;28;20031;-79
2021/11/03 01:43:08;;;;;;;57.17;20.00;;;5.10;99.20;;;;;;4959041;28;20575;-79
2021/11/03 01:45:34;;;;;;;58.03;20.30;;;5.20;99.20;;;;;;4952872;28;20027;-79
2021/11/03 01:48:08;;;;;;;66.88;20.63;;;5.30;99.20;;;;;;4954730;28;20518;-79
2021/11/03 01:50:40;;;;;;;61.72;19.30;;;5.30;99.20;;;;;;4961847;28;20498;-79
2021/11/03 01:53:14;;;;;;;57.42;19.67;;;5.20;99.10;;;;;;4956345;28;20019;-78
2021/11/03 01:55:51;;;;;;;54.72;18.58;;;5.20;99.10;;;;;;4944472;28;20034;-79
2021/11/03 01:58:22;;;;;;;46.85;17.75;;;5.10;99.10;;;;;;4959283;28;20031;-79
2021/11/03 02:00:50;;;;;;;51.50;18.55;;;5.10;99.20;;;;;;4946587;28;20217;-79
2021/11/03 02:03:18;;;;;;;48.60;18.27;;;5.00;99.20;;;;;;4946856;28;20054;-78
2021/11/03 02:05:50;;;;;;;55.13;19.05;;;5.00;99.20;;;;;;4961685;28;20042;-78
2021/11/03 02:08:16;;;;;;;47.10;16.83;;;5.00;99.30;;;;;;4959939;28;20038;-78
2021/11/03 02:10:42;;;;;;;47.15;17.45;;;5.00;99.30;;;;;;4944969;28;20281;-78
2021/11/03 02:13:12;;;;;;;52.65;18.58;;;5.00;99.30;;;;;;4946450;28;20245;-79
2021/11/03 02:15:39;;;;;;;49.30;17.25;;;5.00;99.30;;;;;;4957378;28;20100;-79
2021/11/03 02:18:06;;;;;;;50.65;17.33;;;4.90;99.30;;;;;;4937538;28;20134;-79
2021/11/03 02:20:32;;;;;;;56.72;17.65;;;4.90;99.40;;;;;;4943871;28;20487;-79
2021/11/03 02:23:18;;;;;;;53.15;17.15;;;4.80;99.40;;;;;;4961551;28;20066;-79
2021/11/03 02:25:56;;;;;;;53.67;18.27;;;4.80;99.40;;;;;;4943869;28;20034;-79
2021/11/03 02:28:24;;;;;;;56.97;17.98;;;4.70;99.40;;;;;;4958134;28;20447;-79
2021/11/03 02:30:49;;;;;;;57.13;17.55;;;4.60;99.40;;;;;;4947439;28;20492;-79
2021/11/03 02:33:19;;;;;;;64.47;17.50;;;4.70;99.50;;;;;;4935927;28;20023;-79
2021/11/03 02:35:52;;;;;;;57.85;18.17;;;4.60;99.50;;;;;;4965470;28;20212;-79
2021/11/03 02:38:27;;;;;;;54.88;18.23;;;4.50;99.30;;;;;;4959893;28;20051;-79
2021/11/03 02:40:59;;;;;;;51.53;16.52;;;4.50;99.40;;;;;;4943928;28;20118;-79
2021/11/03 02:43:38;;;;;;;65.57;18.17;;;4.40;99.50;;;;;;4960473;28;20194;-78
2021/11/03 02:46:04;;;;;;;53.78;17.30;;;4.40;99.50;;;;;;4943976;28;20115;-79
2021/11/03 02:48:32;;;;;;;57.30;17.83;;;4.50;99.70;;;;;;4957054;28;20055;-79
2021/11/03 03:01:36;;;;;;;66.32;18.98;;;4.50;99.70;;;;;;4958169;28;20070;-79
2021/11/03 03:04:06;;;;;;;65.57;19.27;;;4.60;99.80;;;;;;4951645;28;20114;-79
2021/11/03 03:06:32;;;;;;;67.72;19.90;;;4.70;99.90;;;;;;4954949;28;20034;-79
2021/11/03 03:08:58;;;;;;;67.30;20.70;;;4.70;99.90;;;;;;4956886;28;20027;-79
2021/11/03 03:11:27;;;;;;;73.97;21.80;;;4.80;99.90;;;;;;4946446;28;20400;-79
2021/11/03 03:13:52;;;;;;;70.43;21.60;;;4.80;99.90;;;;;;4965618;28;20046;-79
2021/11/03 03:16:19;;;;;;;67.43;21.13;;;4.80;99.90;;;;;;4974788;28;20035;-78
2021/11/03 03:18:45;;;;;;;77.63;21.52;;;4.80;99.90;;;;;;4970038;23;20058;-77
2021/11/03 03:21:12;;;;;;;75.57;22.45;;;4.70;99.80;;;;;;4980519;28;20144;-78
2021/11/03 03:23:38;;;;;;;74.97;21.25;;;4.80;99.90;;;;;;4998834;28;20085;-78
2021/11/03 03:26:04;;;;;;;70.80;22.17;;;4.70;99.80;;;;;;4991116;28;20098;-78
2021/11/03 03:28:29;;;;;;;89.47;23.42;;;4.70;99.90;;;;;;4990227;28;20037;-78
2021/11/03 03:30:55;;;;;;;89.05;24.02;;;4.70;99.90;;;;;;4963733;28;20031;-78
2021/11/03 03:33:20;;;;;;;92.72;25.80;;;4.70;99.90;;;;;;4965023;28;20016;-78
2021/11/03 03:35:46;;;;;;;104.38;25.75;;;4.70;99.90;;;;;;4964525;28;20110;-78
2021/11/03 03:38:11;;;;;;;85.30;24.25;;;4.80;99.90;;;;;;4967526;28;20043;-78
2021/11/03 03:40:37;;;;;;;86.90;24.40;;;4.80;99.90;;;;;;4971018;28;20038;-78
2021/11/03 03:43:03;;;;;;;98.32;25.50;;;4.80;99.90;;;;;;4978015;28;20046;-78
2021/11/03 03:45:29;;;;;;;87.68;23.65;;;4.80;99.90;;;;;;4978652;28;20026;-78
2021/11/03 03:47:54;;;;;;;91.63;24.67;;;4.70;99.90;;;;;;4960167;28;20058;-78
2021/11/03 03:50:20;;;;;;;91.82;24.83;;;4.70;99.90;;;;;;4956147;28;20023;-78
2021/11/03 03:52:45;;;;;;;106.85;24.77;;;4.70;99.90;;;;;;4968396;28;20536;-78
2021/11/03 03:55:11;;;;;;;99.82;26.45;;;4.70;99.90;;;;;;4967222;28;20289;-78
2021/11/03 03:57:37;;;;;;;100.07;26.60;;;4.80;99.90;;;;;;4968534;28;20027;-78
2021/11/03 04:00:07;;;;;;;106.88;27.35;;;4.70;99.90;;;;;;4979879;28;20478;-78
2021/11/03 04:02:33;;;;;;;115.40;27.15;;;4.70;99.90;;;;;;4968508;28;20091;-78
2021/11/03 04:04:58;;;;;;;109.90;27.42;;;4.60;99.90;;;;;;4966671;28;20047;-78
2021/11/03 04:07:24;;;;;;;121.32;27.40;;;4.70;99.90;;;;;;4948227;28;20050;-78
2021/11/03 04:09:49;;;;;;;124.57;28.00;;;4.80;99.90;;;;;;4971085;28;20069;-78
2021/11/03 04:12:15;;;;;;;125.28;27.92;;;4.80;99.90;;;;;;4969514;28;20150;-80
2021/11/03 04:14:40;;;;;;;126.45;29.08;;;4.80;99.90;;;;;;4971235;28;20121;-78
2021/11/03 04:17:06;;;;;;;130.25;28.73;;;4.70;99.90;;;;;;4948209;28;20061;-78
2021/11/03 04:19:31;;;;;;;132.32;28.73;;;4.70;99.90;;;;;;4965493;28;20399;-78
2021/11/03 04:21:57;;;;;;;132.68;29.88;;;4.60;99.90;;;;;;4973624;28;20541;-78
2021/11/03 04:24:22;;;;;;;136.30;30.25;;;4.60;99.90;;;;;;4949348;28;20071;-78
2021/11/03 04:26:49;;;;;;;120.28;28.05;;;4.60;99.90;;;;;;4973315;28;20057;-79
2021/11/03 04:29:17;;;;;;;140.88;30.92;;;4.60;99.90;;;;;;4948823;28;20027;-78
2021/11/03 04:31:42;;;;;;;157.95;31.10;;;4.70;99.90;;;;;;4965003;28;20204;-78
2021/11/03 04:34:08;;;;;;;129.10;29.35;;;4.60;99.90;;;;;;4949989;28;20031;-78
2021/11/03 04:36:34;;;;;;;122.13;29.67;;;4.70;99.90;;;;;;4949561;28;20030;-78
2021/11/03 04:39:01;;;;;;;133.50;30.90;;;4.60;99.90;;;;;;4963306;28;20030;-78
2021/11/03 04:41:27;;;;;;;138.10;30.60;;;4.60;99.90;;;;;;4953035;28;20023;-79
2021/11/03 04:43:53;;;;;;;120.22;29.10;;;4.60;99.90;;;;;;4964396;28;20100;-78
2021/11/03 04:46:18;;;;;;;123.80;29.10;;;4.60;99.90;;;;;;4964483;28;20039;-78
2021/11/03 04:48:45;;;;;;;138.27;31.58;;;4.70;99.90;;;;;;4962275;28;20045;-78
2021/11/03 04:51:11;;;;;;;125.57;29.52;;;4.70;99.90;;;;;;4970056;28;20034;-78
2021/11/03 04:53:36;;;;;;;137.13;30.42;;;4.70;99.90;;;;;;4959829;28;20041;-79
2021/11/03 04:56:04;;;;;;;134.18;30.35;;;4.60;99.90;;;;;;4963519;28;20038;-78
2021/11/03 04:58:31;;;;;;;126.93;28.50;;;4.60;99.90;;;;;;4961972;28;20031;-78
2021/11/03 05:00:57;;;;;;;130.35;29.15;;;4.50;99.90;;;;;;4968066;28;20058;-78
2021/11/03 05:03:23;;;;;;;128.38;29.25;;;4.30;99.90;;;;;;4943312;28;20035;-78
2021/11/03 05:05:49;;;;;;;130.27;29.52;;;4.40;99.90;;;;;;4961582;28;20035;-78
2021/11/03 05:08:15;;;;;;;126.82;26.85;;;4.30;99.90;;;;;;4952341;28;20095;-78
2021/11/03 05:10:41;;;;;;;125.43;28.95;;;4.10;99.90;;;;;;4946459;28;20488;-78
2021/11/03 05:13:07;;;;;;;114.40;29.33;;;4.10;99.90;;;;;;4952945;28;20034;-78
2021/11/03 05:15:33;;;;;;;122.55;29.17;;;4.10;99.90;;;;;;4964291;28;20208;-78
2021/11/03 05:17:58;;;;;;;124.88;30.23;;;4.00;99.90;;;;;;4962702;28;20408;-78
2021/11/03 05:20:24;;;;;;;122.55;29.95;;;3.90;99.90;;;;;;4969291;28;20039;-79
2021/11/03 05:22:49;;;;;;;136.20;31.13;;;3.90;99.90;;;;;;4969670;28;20034;-79
2021/11/03 05:25:18;;;;;;;128.45;30.08;;;3.70;99.90;;;;;;4964199;28;20034;-79
2021/11/03 05:27:44;;;;;;;141.02;31.05;;;3.70;99.90;;;;;;4970524;28;20077;-79
2021/11/03 05:30:10;;;;;;;182.48;30.92;;;3.80;99.90;;;;;;4965674;28;20031;-80
2021/11/03 05:32:35;;;;;;;270.00;31.42;;;3.80;99.90;;;;;;4969380;28;20371;-79
2021/11/03 05:35:01;;;;;;;178.65;30.20;;;3.70;99.90;;;;;;4971667;28;20031;-80
2021/11/03 05:37:27;;;;;;;221.82;29.98;;;3.70;99.90;;;;;;4946582;28;20050;-79
2021/11/03 05:39:53;;;;;;;174.80;30.60;;;3.70;99.90;;;;;;4968080;28;20027;-79
2021/11/03 05:42:19;;;;;;;222.70;30.58;;;3.70;99.90;;;;;;4962563;28;20042;-77
2021/11/03 05:44:45;;;;;;;214.82;29.75;;;3.70;99.90;;;;;;4947171;28;20113;-79
2021/11/03 05:47:23;;;;;;;154.73;27.38;;;3.70;99.90;;;;;;4951466;28;20118;-79
2021/11/03 05:49:49;;;;;;;151.20;28.88;;;3.70;99.90;;;;;;4970899;28;20041;-79
2021/11/03 05:52:14;;;;;;;128.75;28.65;;;3.70;99.90;;;;;;4954254;28;20113;-78
2021/11/03 05:54:40;;;;;;;143.10;28.90;;;3.70;99.90;;;;;;4961983;28;20113;-79
2021/11/03 05:57:05;;;;;;;148.77;30.08;;;3.60;99.90;;;;;;4968760;28;20046;-79
2021/11/03 05:59:31;;;;;;;132.02;28.85;;;3.60;99.90;;;;;;4951773;28;20035;-79
2021/11/03 06:01:57;;;;;;;134.50;29.83;;;3.60;99.90;;;;;;4964971;28;20118;-79
2021/11/03 06:04:23;;;;;;;153.23;31.77;;;3.70;99.90;;;;;;4971411;28;20544;-79
2021/11/03 06:06:48;;;;;;;152.68;31.65;;;3.60;99.90;;;;;;4951963;28;20026;-79
2021/11/03 06:09:14;;;;;;;146.00;30.65;;;3.60;99.90;;;;;;4972721;28;20032;-79
2021/11/03 06:11:42;;;;;;;165.45;32.28;;;3.70;99.90;;;;;;4956088;28;20126;-79
2021/11/03 06:14:09;;;;;;;158.48;32.50;;;3.80;99.90;;;;;;4954875;28;20492;-79
2021/11/03 06:16:35;;;;;;;166.98;32.88;;;3.60;99.90;;;;;;4966970;28;20407;-79
2021/11/03 06:19:00;;;;;;;155.35;32.03;;;3.60;99.90;;;;;;4956581;28;20038;-79
2021/11/03 06:21:26;;;;;;;168.45;32.97;;;3.70;99.90;;;;;;4964707;28;20106;-79
2021/11/03 06:23:52;;;;;;;172.38;31.80;;;3.60;99.90;;;;;;4963738;28;20404;-79
2021/11/03 06:26:21;;;;;;;169.95;32.63;;;3.80;99.90;;;;;;4966426;28;20058;-79
2021/11/03 06:28:48;;;;;;;165.27;33.42;;;3.80;99.90;;;;;;4950718;28;20039;-79
2021/11/03 06:31:14;;;;;;;168.95;34.08;;;3.80;99.90;;;;;;4965173;28;20034;-79
2021/11/03 06:33:40;;;;;;;189.93;34.05;;;3.90;99.90;;;;;;4950265;28;20035;-79
2021/11/03 06:36:08;;;;;;;182.32;34.63;;;4.00;99.90;;;;;;4949768;28;20031;-78
2021/11/03 06:38:34;;;;;;;194.75;35.42;;;4.00;99.90;;;;;;4948234;28;20030;-78
2021/11/03 06:41:01;;;;;;;191.15;35.88;;;3.90;99.90;;;;;;4950651;28;20065;-79
2021/11/03 06:43:27;;;;;;;175.25;35.88;;;3.80;99.90;;;;;;4957514;28;20030;-78
2021/11/03 06:45:53;;;;;;;203.65;36.88;;;3.80;99.90;;;;;;4945460;28;20034;-78
2021/11/03 06:48:19;;;;;;;200.50;35.28;;;3.80;99.90;;;;;;4960747;28;20561;-77
2021/11/03 06:50:45;;;;;;;209.45;37.83;;;3.90;99.90;;;;;;4967339;28;20031;-77
2021/11/03 06:53:15;;;;;;;207.60;36.00;;;3.90;99.90;;;;;;4973581;28;20026;-79
2021/11/03 06:55:41;;;;;;;206.75;37.75;;;3.90;99.90;;;;;;4949516;28;20037;-79
2021/11/03 06:58:06;;;;;;;222.27;38.05;;;3.90;99.90;;;;;;4967885;28;20027;-79
2021/11/03 07:00:36;;;;;;;206.75;37.25;;;4.00;99.90;;;;;;4962803;28;20031;-79
2021/11/03 07:03:03;;;;;;;231.82;39.80;;;4.10;99.90;;;;;;4966205;28;20050;-79
2021/11/03 07:05:31;;;;;;;218.50;38.35;;;4.30;99.90;;;;;;4957581;28;22144;-79
2021/11/03 07:07:56;;;;;;;230.20;40.35;;;4.40;99.90;;;;;;4959660;28;20030;-79
2021/11/03 07:10:33;;;;;;;254.35;44.22;;;4.60;99.90;;;;;;4957872;28;20030;-78
2021/11/03 07:12:59;;;;;;;238.90;42.30;;;4.70;99.90;;;;;;4976922;28;20054;-80
2021/11/03 07:15:26;;;;;;;247.82;43.65;;;4.80;99.90;;;;;;4950593;28;20027;-80
2021/11/03 07:17:52;;;;;;;259.77;45.88;;;4.90;99.90;;;;;;4955776;28;20061;-79
2021/11/03 07:20:19;;;;;;;250.05;45.97;;;5.00;99.90;;;;;;4969970;28;20476;-79
2021/11/03 07:22:44;;;;;;;243.45;44.03;;;5.10;99.90;;;;;;4957775;28;20031;-78
2021/11/03 07:25:12;;;;;;;213.45;41.33;;;5.20;99.90;;;;;;4964955;28;20101;-78
2021/11/03 07:27:38;;;;;;;266.23;46.38;;;5.20;99.90;;;;;;4966099;28;20563;-79
2021/11/03 07:30:06;;;;;;;260.23;46.85;;;5.30;99.90;;;;;;4979378;28;20106;-79
2021/11/03 07:32:31;;;;;;;242.38;44.58;;;5.30;99.90;;;;;;4969321;28;20113;-81
2021/11/03 07:34:57;;;;;;;273.02;47.45;;;5.30;99.90;;;;;;4974312;28;20054;-77
2021/11/03 07:37:22;;;;;;;276.30;45.00;;;5.30;99.90;;;;;;4971290;28;20058;-76
2021/11/03 07:39:48;;;;;;;261.40;44.22;;;5.40;99.90;;;;;;4958659;28;20145;-76
2021/11/03 07:42:14;;;;;;;267.98;45.33;;;5.50;99.90;;;;;;4965091;28;20074;-76
2021/11/03 07:44:40;;;;;;;242.52;43.80;;;5.60;99.90;;;;;;4962796;28;20086;-78
2021/11/03 07:47:05;;;;;;;272.35;44.60;;;5.60;99.90;;;;;;4950209;28;20027;-78
2021/11/03 07:49:31;;;;;;;242.77;41.00;;;5.60;99.90;;;;;;4944660;28;20100;-79
2021/11/03 07:51:56;;;;;;;268.08;41.47;;;5.60;99.90;;;;;;4956377;28;20046;-76
2021/11/03 07:54:23;;;;;;;271.00;42.30;;;5.70;99.90;;;;;;4950680;28;20041;-78
2021/11/03 07:56:48;;;;;;;266.42;41.33;;;5.70;99.90;;;;;;4970699;28;20034;-77
2021/11/03 07:59:16;;;;;;;239.25;40.78;;;5.70;99.90;;;;;;4944691;28;20036;-79
2021/11/03 08:01:42;;;;;;;239.82;39.33;;;5.70;99.90;;;;;;4970927;28;20023;-78
2021/11/03 08:04:09;;;;;;;235.20;40.83;;;5.80;99.90;;;;;;4957464;28;20027;-77
2021/11/03 08:06:35;;;;;;;262.55;42.05;;;5.80;99.90;;;;;;4960371;28;20113;-78
2021/11/03 08:09:04;;;;;;;251.43;40.38;;;5.80;99.90;;;;;;4978177;28;20726;-77
2021/11/03 08:11:34;;;;;;;226.05;38.83;;;5.80;99.90;;;;;;4971653;28;20065;-77
2021/11/03 08:14:01;;;;;;;236.20;39.72;;;5.80;99.90;;;;;;4971553;28;20061;-77
2021/11/03 08:16:34;;;;;;;238.10;39.80;;;5.90;99.90;;;;;;4943472;28;20041;-78
2021/11/03 08:19:00;;;;;;;216.75;39.88;;;6.00;99.90;;;;;;4963730;28;20034;-77
2021/11/03 08:21:27;;;;;;;230.90;41.20;;;5.90;99.80;;;;;;4966452;28;20042;-78
2021/11/03 08:23:52;;;;;;;231.48;40.60;;;5.90;99.80;;;;;;4951549;28;20041;-77
2021/11/03 08:26:19;;;;;;;202.63;37.72;;;6.00;99.70;;;;;;4965541;28;20028;-78
2021/11/03 08:28:45;;;;;;;216.52;40.25;;;6.00;99.60;;;;;;4978779;28;20030;-77
2021/11/03 08:31:10;;;;;;;201.43;41.15;;;6.10;99.70;;;;;;4968801;28;20432;-79
2021/11/03 08:33:43;;;;;;;211.95;38.50;;;6.10;99.40;;;;;;4962669;28;20093;-78
2021/11/03 08:36:10;;;;;;;211.15;38.47;;;6.20;99.40;;;;;;4959793;28;20039;-78
2021/11/03 08:38:36;;;;;;;198.15;38.78;;;6.30;99.40;;;;;;4965879;28;20034;-77
2021/11/03 08:41:03;;;;;;;197.38;36.40;;;6.20;99.10;;;;;;4952862;28;20026;-77
2021/11/03 08:43:32;;;;;;;188.75;38.67;;;6.20;99.10;;;;;;4948391;28;20540;-78
2021/11/03 08:45:58;;;;;;;204.32;40.25;;;6.30;99.00;;;;;;4967091;28;20481;-77
2021/11/03 08:48:25;;;;;;;187.98;38.20;;;6.40;98.80;;;;;;4962037;28;20062;-78
2021/11/03 08:50:51;;;;;;;189.00;37.60;;;6.50;98.70;;;;;;4964957;28;20135;-78
2021/11/03 08:53:18;;;;;;;181.77;37.30;;;6.70;98.80;;;;;;4951498;28;20033;-77
2021/11/03 08:55:49;;;;;;;165.95;35.97;;;6.50;98.10;;;;;;4967217;28;20023;-78
2021/11/03 08:58:17;;;;;;;158.50;36.75;;;6.70;98.40;;;;;;4957148;28;20035;-77
2021/11/03 09:00:45;;;;;;;140.70;35.42;;;6.80;98.00;;;;;;4945791;28;20034;-77
2021/11/03 09:03:12;;;;;;;146.63;35.08;;;6.80;97.60;;;;;;4961146;28;20033;-78
2021/11/03 09:05:38;;;;;;;143.60;37.22;;;7.00;97.70;;;;;;4946051;28;20027;-77
2021/11/03 09:08:04;;;;;;;128.25;35.17;;;6.90;97.20;;;;;;4961183;28;20027;-77
2021/11/03 09:10:33;;;;;;;144.95;36.50;;;6.90;97.10;;;;;;4961562;28;20023;-78
2021/11/03 09:12:59;;;;;;;144.55;37.67;;;7.00;96.90;;;;;;4967146;28;20123;-79
2021/11/03 09:15:24;;;;;;;136.13;36.78;;;7.10;97.20;;;;;;4948939;28;20461;-77
2021/11/03 09:17:50;;;;;;;118.68;36.55;;;7.30;96.70;;;;;;4958830;28;20026;-78
2021/11/03 09:20:16;;;;;;;113.00;36.05;;;7.50;96.80;;;;;;4998699;23;20146;-74
2021/11/03 09:22:42;;;;;;;116.07;36.15;;;7.60;96.70;;;;;;4969144;28;20038;-75
2021/11/03 09:25:12;;;;;;;100.60;33.97;;;7.60;96.30;;;;;;4982134;28;20045;-74
2021/11/03 09:27:38;;;;;;;96.55;33.13;;;7.60;96.10;;;;;;4974127;28;20043;-73
2021/11/03 09:30:06;;;;;;;92.47;33.95;;;7.50;95.90;;;;;;4969736;28;20475;-75
2021/11/03 09:32:33;;;;;;;84.80;32.63;;;7.60;95.90;;;;;;4960283;28;20058;-75
2021/11/03 09:34:59;;;;;;;82.85;32.35;;;7.60;95.60;;;;;;4965875;28;20030;-75
2021/11/03 09:37:25;;;;;;;79.80;31.02;;;7.60;95.40;;;;;;4943555;28;20584;-75
2021/11/03 09:39:53;;;;;;;74.32;31.00;;;8.00;95.70;;;;;;4948670;28;20034;-74
2021/11/03 09:42:21;;;;;;;73.03;30.95;;;8.10;95.20;;;;;;4959232;28;20035;-74
2021/11/03 09:44:48;;;;;;;59.38;28.95;;;8.30;95.00;;;;;;4962898;28;20311;-76
2021/11/03 09:47:14;;;;;;;61.35;30.13;;;8.40;94.70;;;;;;4958943;28;20207;-73
2021/11/03 09:49:44;;;;;;;51.97;28.42;;;8.40;93.70;;;;;;4951142;28;20134;-74
2021/11/03 09:52:24;;;;;;;43.72;27.08;;;8.40;93.00;;;;;;4961573;28;20484;-74
2021/11/03 09:55:10;;;;;;;43.25;24.73;;;8.60;93.30;;;;;;4960049;28;20038;-74
2021/11/03 09:57:55;;;;;;;41.65;24.55;;;8.80;92.90;;;;;;4947078;28;22114;-74
2021/11/03 10:00:41;;;;;;;40.08;22.75;;;8.80;92.20;;;;;;4957369;28;20384;-74
2021/11/03 10:03:34;;;;;;;42.42;25.30;;;8.70;91.40;;;;;;4960574;28;20037;-74
2021/11/03 10:06:19;;;;;;;35.83;22.95;;;8.90;92.30;;;;;;4958679;28;20027;-74
2021/11/03 10:08:48;;;;;;;39.15;22.23;;;9.00;91.30;;;;;;4960149;28;20073;-72
2021/11/03 10:11:33;;;;;;;37.58;21.92;;;9.20;91.40;;;;;;4964275;28;20026;-74
2021/11/03 10:14:00;;;;;;;33.70;20.60;;;9.50;91.30;;;;;;4960943;28;20077;-74
2021/11/03 10:16:42;;;;;;;29.85;19.38;;;9.70;89.80;;;;;;4958067;28;20059;-72
2021/11/03 10:19:13;;;;;;;27.50;18.05;;;9.70;88.90;;;;;;4964191;28;20031;-74
2021/11/03 10:21:42;;;;;;;26.55;17.00;;;9.60;88.70;;;;;;4961789;28;20124;-74
2021/11/03 10:24:14;;;;;;;28.13;17.90;;;9.80;89.20;;;;;;4946813;28;20158;-75
2021/11/03 10:26:57;;;;;;;28.85;18.75;;;9.70;88.10;;;;;;4968512;28;20030;-75
2021/11/03 10:29:31;;;;;;;31.05;18.30;;;9.60;88.40;;;;;;4965769;28;20027;-75
2021/11/03 10:32:02;;;;;;;28.95;17.50;;;9.60;89.00;;;;;;4961678;28;20047;-75
2021/11/03 10:34:28;;;;;;;25.20;17.20;;;9.20;88.70;;;;;;4942818;28;20027;-75
2021/11/03 10:37:44;;;;;;;26.45;17.77;;;9.00;89.10;;;;;;4964516;28;20038;-73
2021/11/03 10:40:22;;;;;;;28.40;18.30;;;8.60;90.20;;;;;;4905517;29;20590;-75
2021/11/03 10:42:55;;;;;;;30.15;18.85;;;8.40;91.00;;;;;;4908061;29;20040;-75
2021/11/03 10:45:38;;;;;;;30.48;19.85;;;8.50;91.00;;;;;;4948195;28;20050;-74
2021/11/03 10:48:06;;;;;;;29.25;19.08;;;8.40;91.00;;;;;;4964454;28;20031;-75
2021/11/03 10:50:44;;;;;;;28.48;18.08;;;8.60;91.20;;;;;;4966872;28;20022;-75
2021/11/03 10:53:21;;;;;;;28.30;18.45;;;8.40;90.90;;;;;;4954661;28;20499;-75
2021/11/03 10:56:17;;;;;;;31.88;18.88;;;8.30;91.10;;;;;;4963543;28;20193;-74
2021/11/03 10:58:51;;;;;;;28.23;17.77;;;8.10;91.50;;;;;;4945118;28;20420;-74
2021/11/03 11:01:23;;;;;;;30.42;19.58;;;8.10;91.70;;;;;;4968416;28;20485;-74
2021/11/03 11:04:13;;;;;;;32.33;20.17;;;8.00;92.20;;;;;;4968130;28;20047;-74
2021/11/03 11:07:17;;;;;;;31.83;20.25;;;8.00;92.20;;;;;;4940735;28;20681;-75
2021/11/03 11:09:48;;;;;;;34.15;19.60;;;8.00;91.70;;;;;;4928556;28;20050;-74
2021/11/03 11:12:16;;;;;;;;;;;8.00;91.90;;;;;;4951988;28;20078;-75
2021/11/03 11:14:42;;;;;;;30.33;19.17;;;8.00;91.90;;;;;;4950970;28;19910;-74
2021/11/03 11:17:30;;;;;;;32.92;18.95;;;8.20;91.80;;;;;;4966030;28;20101;-74
2021/11/03 11:20:24;;;;;;;32.08;18.70;;;8.20;90.90;;;;;;4958890;28;20778;-75
2021/11/03 11:23:05;;;;;;;30.00;19.42;;;8.50;91.50;;;;;;4967025;28;20086;-74
2021/11/03 11:25:42;;;;;;;26.27;18.67;;;8.60;90.80;;;;;;4950400;28;20042;-75
2021/11/03 11:28:32;;;;;;;26.98;16.90;;;8.70;90.80;;;;;;4959169;28;20034;-74
2021/11/03 11:31:13;;;;;;;29.20;17.60;;;8.80;89.60;;;;;;4944817;28;20377;-73
2021/11/03 11:34:00;;;;;;;30.80;17.85;;;8.70;88.80;;;;;;4946156;28;20811;-74
2021/11/03 11:36:33;;;;;;;27.02;16.85;;;9.00;89.20;;;;;;4962792;28;20058;-74
2021/11/03 11:39:15;;;;;;;29.92;17.17;;;9.00;88.30;;;;;;4961971;28;20823;-74
2021/11/03 11:41:57;;;;;;;24.52;16.35;;;9.20;88.60;;;;;;4950382;28;20366;-74
2021/11/03 11:44:30;;;;;;;28.98;17.70;;;9.20;88.10;;;;;;4946931;28;20086;-74
2021/11/03 11:46:59;;;;;;;29.05;16.55;;;9.60;88.40;;;;;;4940720;28;20081;-74
2021/11/03 11:49:35;;;;;;;26.13;16.80;;;9.50;87.50;;;;;;4961985;28;20037;-74
2021/11/03 11:52:23;;;;;;;24.27;15.98;;;9.80;87.70;;;;;;4966218;28;20026;-74
2021/11/03 11:55:10;;;;;;;28.33;16.50;;;9.80;87.10;;;;;;4964694;28;20412;-74
2021/11/03 11:57:36;;;;;;;22.20;15.10;;;9.90;86.80;;;;;;4963716;28;20027;-74
2021/11/03 12:00:08;;;;;;;21.50;15.10;;;9.90;86.40;;;;;;4941469;28;20035;-74
2021/11/03 12:02:45;;;;;;;24.08;15.75;;;9.90;86.40;;;;;;4966079;28;20022;-74
2021/11/03 12:05:43;;;;;;;25.42;16.60;;;9.60;86.60;;;;;;4959750;28;20037;-74
2021/11/03 12:08:08;;;;;;;23.80;15.48;;;9.50;87.30;;;;;;4965430;28;20437;-74
2021/11/03 12:10:36;;;;;;;22.80;16.17;;;9.30;87.70;;;;;;4948286;28;20078;-74
2021/11/03 12:13:15;;;;;;;25.98;16.50;;;9.40;88.50;;;;;;4943322;28;20033;-74
2021/11/03 12:15:49;;;;;;;26.70;15.93;;;9.50;87.80;;;;;;4962438;28;20438;-74
2021/11/03 12:18:44;;;;;;;24.67;16.77;;;9.40;87.00;;;;;;4961438;28;20034;-74
2021/11/03 12:21:31;;;;;;;23.73;15.32;;;9.30;87.70;;;;;;4959270;28;20127;-74
2021/11/03 12:24:06;;;;;;;25.20;16.05;;;9.40;87.40;;;;;;4943562;28;20034;-74
2021/11/03 12:26:48;;;;;;;23.85;14.88;;;9.60;87.60;;;;;;4964055;28;20468;-74
2021/11/03 12:29:17;;;;;;;20.40;13.68;;;9.70;87.10;;;;;;4951577;28;20042;-74
2021/11/03 12:31:42;;;;;;;21.60;13.85;;;9.60;85.70;;;;;;4949106;28;20030;-74
2021/11/03 12:34:08;;;;;;;23.60;13.80;;;9.50;86.00;;;;;;4948217;28;20027;-75
2021/11/03 12:36:49;;;;;;;19.00;13.43;;;9.50;86.20;;;;;;4967111;28;20048;-76
2021/11/03 12:39:40;;;;;;;23.75;14.95;;;9.70;86.40;;;;;;4963504;28;20035;-73
2021/11/03 12:42:10;;;;;;;21.60;15.07;;;9.80;86.00;;;;;;4939981;28;20150;-76
2021/11/03 12:44:42;;;;;;;22.17;13.73;;;10.10;86.00;;;;;;4958881;28;20027;-74
2021/11/03 12:47:21;;;;;;;21.35;13.98;;;9.60;85.80;;;;;;4941829;29;20126;-75
2021/11/03 12:50:08;;;;;;;19.45;12.82;;;9.70;86.00;;;;;;4937608;28;20023;-75
2021/11/03 12:52:45;;;;;;;17.63;12.85;;;9.60;85.50;;;;;;4944296;28;20271;-75
2021/11/03 12:55:30;;;;;;;19.70;12.50;;;9.70;85.50;;;;;;4945231;28;20487;-75